METAR AND TAF INFORMATION
METAR FOR KSDL
KSDL 130853Z AUTO 00000KT 10SM CLR 21/M01 A3000 RMK AO2 SLP134 T02061011 51008
KSDL 130753Z AUTO 07003KT 10SM CLR 21/01 A3000 RMK AO2 SLP135 T02060006
KSDL 130653Z AUTO 00000KT 10SM CLR 21/01 A2999 RMK AO2 SLP133 T02110006 403220156
KSDL 130520Z 1306/1406 VRB04KT P6SM SKC
FM131600 16007KT P6SM SKC
FM132000 21010G16KT P6SM SKC
FM140200 26007KT P6SM SKC

 AIRPORT MAP

 RUNWAY INFORMATION
Runway 03 Runway length 8249 ft Runway width 100 ft
Runway elevation 1448 ft Runway displaced threshold 740 ft Runway heading 44
Runway 21 Runway length 8249 ft Runway width 100 ft
Runway elevation 1507 ft Runway displaced threshold 400 ft Runway heading 224

 AIRPORT FREQUENCIES
Type A/D Name PHOENIX AP Frequency 120.7 MHZ
Type ATIS Name ATIS Frequency 118.6 MHZ
Type CLD Name CLNC DEL Frequency 124.8 MHZ
Type CTAF Name CTAF Frequency 119.9 MHZ
Type GND Name GND Frequency 121.6 MHZ
Type RDO Name PRESCOTT R Frequency 122.2 MHZ
Type TWR Name TWR Frequency 119.9 MHZ

 AIRPORT NEAR NAVIGATION AIDS

-